Latest Weather Observations for Rhyll

IDV60901

Issued at 9:51 am EST Wednesday 1 July 2015 (issued every 10 minutes, with the page automatically refreshed every 10 minutes)

About weather observations | Map of Melbourne area stations | Latest observations for Melbourne area | Other Formats
Station Details ID: 086373 Name: RHYLL Lat: -38.46 Lon: 145.31 Height: 13.4 m
Data from the previous 72 hours. | See also: Recent months at Rhyll
Date/Time
EST
Tmp

°C
App
Tmp
°C
Dew
Point
°C
Rel
Hum
%
Delta-T

°C
Wind Press
QNH
hPa
Press
MSL
hPa
Rain
since
9 am
mm
Dir
 
Spd
km/h
Gust
km/h
Spd
kts
Gust
kts
01/09:30am 11.4 7.5 6.9 74 2.1 NNW 17 26 9 14 1026.8 1026.8 0.0
01/09:00am 10.4 7.9 6.5 77 1.8 NW 9 20 5 11 1026.9 1026.9 2.0
01/08:30am 9.9 8.6 7.5 85 1.1 WNW 4 9 2 5 1027.0 1027.0 2.0
01/08:00am 9.6 8.3 7.7 88 0.9 NW 4 9 2 5 1026.9 1026.9 2.0
01/07:30am 9.9 7.7 7.8 87 1.0 WNW 9 15 5 8 1026.9 1026.9 2.0
01/07:00am 9.8 8.2 8.6 92 0.6 WNW 7 15 4 8 1026.8 1026.8 2.0
01/06:30am 10.0 9.1 9.2 95 0.4 WNW 4 9 2 5 1026.7 1026.7 2.0
01/06:00am 9.7 9.1 8.8 94 0.4 NW 2 6 1 3 1026.6 1026.6 2.0
01/05:30am 9.8 8.4 8.7 93 0.5 WNW 6 9 3 5 1026.6 1026.6 2.0
01/05:00am 9.9 8.6 9.3 96 0.3 WNW 6 13 3 7 1026.7 1026.7 2.0
01/04:30am 10.1 9.3 9.6 97 0.3 WNW 4 7 2 4 1026.7 1026.7 2.0
01/04:00am 10.2 9.4 9.7 97 0.2 NW 4 9 2 5 1026.7 1026.7 2.0
01/03:30am 10.2 9.8 9.7 97 0.3 NNW 2 6 1 3 1026.8 1026.8 2.0
01/03:00am 10.2 10.2 9.9 98 0.2 CALM 0 4 0 2 1027.0 1027.0 2.0
01/02:30am 10.2 9.4 9.7 97 0.3 WNW 4 6 2 3 1027.2 1027.2 2.0
01/02:00am 10.3 8.9 9.7 96 0.3 W 7 13 4 7 1027.3 1027.3 0.6
01/01:30am 10.4 9.2 9.6 95 0.4 WNW 6 9 3 5 1027.3 1027.3 0.4
01/01:00am 10.4 9.0 9.6 95 0.4 WNW 7 15 4 8 1027.6 1027.6 0.4
01/12:30am 10.4 10.0 9.8 96 0.3 WNW 2 6 1 3 1027.6 1027.6 0.4
01/12:00am 10.4 10.0 9.8 96 0.3 WNW 2 6 1 3 1027.9 1027.9 0.2
 
Date/Time
EST
Tmp

°C
App
Tmp
°C
Dew
Point
°C
Rel
Hum
%
Delta-T

°C
Wind Press
QNH
hPa
Press
MSL
hPa
Rain
since
9 am
mm
Dir
 
Spd
km/h
Gust
km/h
Spd
kts
Gust
kts
30/11:30pm 10.3 9.5 9.5 95 0.4 WNW 4 7 2 4 1027.9 1027.9 0.2
30/11:00pm 10.1 8.8 9.3 95 0.4 NW 6 11 3 6 1027.9 1027.9 0.2
30/10:30pm 10.0 9.1 9.2 95 0.4 NW 4 6 2 3 1028.0 1028.0 0.2
30/10:00pm 9.9 8.9 8.8 93 0.5 NW 4 9 2 5 1028.0 1028.0 0.2
30/09:30pm 10.1 9.1 9.0 93 0.5 NW 4 9 2 5 1028.0 1028.0 0.2
30/09:00pm 10.3 9.5 9.5 95 0.4 NW 4 9 2 5 1028.0 1028.0 0.2
30/08:30pm 9.9 8.9 9.0 94 0.4 NW 4 7 2 4 1028.1 1028.1 0.0
30/08:00pm 9.8 8.8 9.0 95 0.4 WNW 4 7 2 4 1028.0 1028.0 0.0
30/07:30pm 10.0 8.5 9.1 94 0.4 W 7 11 4 6 1028.0 1028.0 0.0
30/07:00pm 10.8 9.0 7.3 79 1.7 W 6 9 3 5 1027.9 1027.9 0.0
30/06:30pm 10.5 9.4 7.0 79 1.7 WNW 2 6 1 3 1027.7 1027.7 0.0
30/06:00pm 10.3 9.3 7.5 83 1.3 W 2 4 1 2 1027.6 1027.6 0.0
30/05:30pm 11.2 10.1 6.7 74 2.1 WNW 2 6 1 3 1027.4 1027.4 0.0
30/05:00pm 11.4 9.8 6.3 71 2.4 NW 4 9 2 5 1027.2 1027.2 0.0
30/04:30pm 11.8 10.3 6.7 71 2.4 NW 4 9 2 5 1027.1 1027.1 0.0
30/04:00pm 11.9 9.9 6.2 68 2.7 NW 6 9 3 5 1026.9 1026.9 0.0
30/03:30pm 12.1 10.6 6.8 70 2.5 WNW 4 9 2 5 1026.9 1026.9 0.0
30/03:00pm 12.3 10.3 7.0 70 2.5 WNW 7 13 4 7 1026.8 1026.8 0.0
30/02:30pm 12.6 10.8 7.3 70 2.6 WNW 6 9 3 5 1026.8 1026.8 0.0
30/02:00pm 12.7 11.0 7.4 70 2.6 W 6 11 3 6 1026.8 1026.8 0.0
30/01:30pm 12.6 10.9 7.5 71 2.5 NW 6 13 3 7 1026.9 1026.9 0.0
30/01:00pm 12.6 10.2 8.5 76 2.0 NNW 11 15 6 8 1027.2 1027.2 0.0
30/12:30pm 11.9 8.9 7.8 76 2.0 NNW 13 19 7 10 1027.6 1027.6 0.0
30/12:00pm 11.6 8.3 7.9 78 1.8 NNW 15 20 8 11 1028.0 1028.0 0.0
30/11:30am 11.1 7.7 7.6 79 1.7 NNW 15 20 8 11 1028.4 1028.4 0.0
30/11:00am 10.8 7.5 7.9 82 1.4 NNW 15 20 8 11 1028.8 1028.8 0.0
30/10:30am 10.1 6.3 7.7 85 1.2 N 17 22 9 12 1028.9 1028.9 0.0
30/10:00am 9.7 6.9 7.1 84 1.2 N 11 17 6 9 1029.2 1029.2 0.0
30/09:30am 9.5 7.1 7.1 85 1.1 N 9 13 5 7 1029.2 1029.2 0.0
30/09:00am 9.3 6.5 6.9 85 1.1 NNW 11 15 6 8 1029.1 1029.1 0.0
30/08:30am 9.3 6.5 7.1 86 1.0 N 11 15 6 8 1029.0 1029.0 0.0
30/08:00am 9.4 6.7 7.2 86 1.0 N 11 15 6 8 1028.7 1028.7 0.0
30/07:30am 9.1 7.1 7.2 88 0.9 N 7 11 4 6 1028.8 1028.8 0.0
30/07:00am 9.1 6.4 7.4 89 0.8 N 11 15 6 8 1028.8 1028.8 0.0
30/06:30am 9.4 6.7 7.5 88 0.9 N 11 15 6 8 1028.7 1028.7 0.0
30/06:00am 9.2 6.9 7.3 88 0.9 N 9 13 5 7 1028.5 1028.5 0.0
30/05:30am 9.0 7.2 7.1 88 0.9 N 6 11 3 6 1028.2 1028.2 0.0
30/05:00am 9.4 6.7 7.5 88 0.9 N 11 13 6 7 1028.2 1028.2 0.0
30/04:30am 9.6 7.7 7.4 86 1.0 N 7 11 4 6 1028.3 1028.3 0.0
30/04:00am 9.8 7.4 7.1 83 1.3 N 9 11 5 6 1028.4 1028.4 0.0
30/03:30am 9.8 8.0 7.1 83 1.3 N 6 9 3 5 1028.4 1028.4 0.0
30/03:00am 9.8 8.0 7.1 83 1.3 NNE 6 7 3 4 1028.4 1028.4 0.0
30/02:30am 9.8 8.8 7.2 84 1.2 N 2 6 1 3 1028.5 1028.5 0.0
30/02:00am 10.0 8.3 7.4 84 1.2 NNW 6 9 3 5 1028.7 1028.7 0.0
30/01:30am 9.9 7.2 7.2 83 1.3 N 11 13 6 7 1028.8 1028.8 0.0
30/01:00am 10.0 7.7 7.3 83 1.3 N 9 11 5 6 1029.2 1029.2 0.0
30/12:30am 10.3 8.4 7.7 84 1.2 N 7 13 4 7 1029.5 1029.5 0.0
30/12:00am 10.4 7.8 7.6 83 1.3 NNW 11 15 6 8 1029.8 1029.8 0.0
 
Date/Time
EST
Tmp

°C
App
Tmp
°C
Dew
Point
°C
Rel
Hum
%
Delta-T

°C
Wind Press
QNH
hPa
Press
MSL
hPa
Rain
since
9 am
mm
Dir
 
Spd
km/h
Gust
km/h
Spd
kts
Gust
kts
29/11:30pm 10.3 8.0 7.4 82 1.4 NNW 9 15 5 8 1029.8 1029.8 0.0
29/11:00pm 10.4 7.4 7.6 83 1.3 N 13 17 7 9 1029.8 1029.8 0.0
29/10:30pm 10.4 7.0 7.5 82 1.4 NNW 15 20 8 11 1029.8 1029.8 0.0
29/10:00pm 10.4 7.0 7.6 83 1.3 N 15 20 8 11 1029.9 1029.9 0.0
29/09:30pm 10.4 8.5 7.5 82 1.4 NNW 7 11 4 6 1030.3 1030.3 0.0
29/09:00pm 10.6 7.9 7.5 81 1.5 N 11 15 6 8 1030.3 1030.3 0.0
29/08:30pm 10.5 8.6 7.6 82 1.4 NNW 7 13 4 7 1030.6 1030.6 0.0
29/08:00pm 10.6 8.4 7.7 82 1.4 NNW 9 13 5 7 1030.8 1030.8 0.0
29/07:30pm 10.8 8.2 7.7 81 1.5 NNW 11 15 6 8 1031.0 1031.0 0.0
29/07:00pm 11.0 8.5 8.2 83 1.4 NNW 11 17 6 9 1030.8 1030.8 0.0
29/06:30pm 11.1 8.2 8.3 83 1.4 N 13 19 7 10 1030.7 1030.7 0.0
29/06:00pm 11.2 8.3 8.1 81 1.5 N 13 17 7 9 1030.7 1030.7 0.0
29/05:30pm 11.3 9.2 8.2 81 1.5 NNW 9 13 5 7 1030.7 1030.7 0.0
29/05:00pm 11.5 9.8 8.5 82 1.5 N 7 13 4 7 1030.7 1030.7 0.0
29/04:30pm 11.7 10.0 8.4 80 1.6 N 7 9 4 5 1030.7 1030.7 0.0
29/04:00pm 11.7 9.9 7.8 77 1.9 N 7 9 4 5 1031.1 1031.1 0.0
29/03:30pm 11.6 9.0 7.7 77 1.9 N 11 17 6 9 1031.1 1031.1 0.0
29/03:00pm 11.8 9.7 8.1 78 1.8 NNW 9 13 5 7 1031.1 1031.1 0.0
29/02:30pm 11.8 8.9 8.3 79 1.7 NNW 13 17 7 9 1031.1 1031.1 0.0
29/02:00pm 11.8 8.8 7.9 77 1.9 N 13 17 7 9 1031.3 1031.3 0.0
29/01:30pm 11.9 9.0 8.0 77 1.9 N 13 17 7 9 1031.5 1031.5 0.0
29/01:00pm 12.0 9.5 8.1 77 1.9 NNW 11 13 6 7 1031.8 1031.8 0.0
29/12:30pm 11.9 9.1 8.4 79 1.7 NNW 13 15 7 8 1032.1 1032.1 0.0
29/12:00pm 11.7 9.2 8.2 79 1.7 NNW 11 17 6 9 1032.5 1032.5 0.0
29/11:30am 11.8 9.0 8.6 81 1.6 NNW 13 19 7 10 1032.8 1032.8 0.0
29/11:00am 11.6 8.6 7.9 78 1.8 NNW 13 19 7 10 1033.2 1033.2 0.0
29/10:30am 11.5 8.6 8.2 80 1.6 NNW 13 17 7 9 1033.3 1033.3 0.0
29/10:00am 11.3 8.2 8.7 84 1.3 N 15 19 8 10 1033.4 1033.4 0.0
29/09:30am 11.5 9.6 9.1 85 1.2 NNW 9 15 5 8 1033.4 1033.4 0.0
29/09:00am 11.4 9.8 8.6 83 1.4 NW 7 13 4 7 1033.4 1033.4 0.0
29/08:30am 10.9 9.9 8.8 87 1.0 WNW 4 7 2 4 1033.3 1033.3 0.0
29/08:00am 10.9 9.6 9.2 89 0.8 NNW 6 11 3 6 1033.1 1033.1 0.0
29/07:30am 11.1 9.7 9.4 89 0.9 NNW 7 11 4 6 1033.0 1033.0 0.0
29/07:00am 11.0 10.4 8.9 87 1.0 NW 2 6 1 3 1032.8 1032.8 0.0
29/06:30am 10.9 9.9 8.8 87 1.0 WNW 4 9 2 5 1032.6 1032.6 0.0
29/06:00am 10.9 8.7 9.3 90 0.8 NNW 11 17 6 9 1032.4 1032.4 0.0
29/05:30am 11.1 9.7 9.0 87 1.0 NNW 6 13 3 7 1032.4 1032.4 0.0
29/05:00am 11.2 10.2 8.9 86 1.1 NW 4 7 2 4 1032.4 1032.4 0.0
29/04:30am 11.2 9.8 8.9 86 1.1 NNW 6 13 3 7 1032.4 1032.4 0.0
29/04:00am 11.2 9.7 8.6 84 1.3 NW 6 11 3 6 1032.5 1032.5 0.0
29/03:30am 11.4 9.9 8.4 82 1.5 NW 6 9 3 5 1032.5 1032.5 0.0
29/03:00am 11.4 10.3 8.3 81 1.5 WNW 4 6 2 3 1032.6 1032.6 0.0
29/02:30am 11.5 10.8 8.4 81 1.5 NW 2 6 1 3 1032.7 1032.7 0.0
29/02:00am 11.5 10.8 8.5 82 1.5 NW 2 6 1 3 1032.7 1032.7 0.0
29/01:30am 11.5 10.4 8.4 81 1.5 NW 4 9 2 5 1032.6 1032.6 0.0
29/01:00am 11.4 10.3 8.4 82 1.5 NW 4 7 2 4 1032.6 1032.6 0.0
29/12:30am 11.3 10.1 8.2 81 1.5 WNW 4 7 2 4 1032.8 1032.8 0.0
29/12:00am 11.4 10.2 8.1 80 1.6 NW 4 7 2 4 1032.9 1032.9 0.0
 
Date/Time
EST
Tmp

°C
App
Tmp
°C
Dew
Point
°C
Rel
Hum
%
Delta-T

°C
Wind Press
QNH
hPa
Press
MSL
hPa
Rain
since
9 am
mm
Dir
 
Spd
km/h
Gust
km/h
Spd
kts
Gust
kts
28/11:30pm 11.4 10.1 7.7 78 1.8 NW 4 6 2 3 1033.0 1033.0 0.0
28/11:00pm 11.5 10.6 7.6 77 1.9 WNW 2 9 1 5 1033.2 1033.2 0.0
28/10:30pm 11.6 10.4 7.9 78 1.8 WNW 4 6 2 3 1033.4 1033.4 0.0
28/10:00pm 11.6 10.7 7.9 78 1.8 WNW 2 6 1 3 1033.5 1033.5 0.0
28/09:30pm 11.7 10.5 8.0 78 1.8 WNW 4 6 2 3 1033.6 1033.6 0.0
28/09:00pm 11.7 11.0 8.4 80 1.6 NW 2 6 1 3 1033.7 1033.7 0.0
28/08:30pm 11.8 11.1 8.5 80 1.6 W 2 6 1 3 1033.8 1033.8 0.0
28/08:00pm 11.9 11.2 8.7 81 1.6 WNW 2 6 1 3 1033.7 1033.7 0.0
28/07:30pm 12.0 11.0 8.8 81 1.6 NW 4 7 2 4 1033.5 1033.5 0.0
28/07:00pm 12.1 10.9 9.7 85 1.2 NNW 6 9 3 5 1033.4 1033.4 0.0
28/06:30pm 12.2 11.5 8.7 79 1.7 NW 2 7 1 4 1033.4 1033.4 0.0
28/06:00pm 12.3 11.4 7.6 73 2.3 WNW 2 4 1 2 1033.0 1033.0 0.0
28/05:30pm 12.4 10.5 6.9 69 2.6 W 6 9 3 5 1032.9 1032.9 0.0
28/05:00pm 12.4 10.5 6.9 69 2.6 W 6 9 3 5 1032.9 1032.9 0.0
28/04:30pm 12.6 10.7 6.9 68 2.7 WSW 6 9 3 5 1032.7 1032.7 0.0
28/04:00pm 12.7 10.6 6.7 67 2.8 WSW 7 11 4 6 1032.9 1032.9 0.0
28/03:30pm 12.8 11.0 7.3 69 2.7 WSW 6 11 3 6 1032.8 1032.8 0.0
28/03:00pm 12.8 10.8 7.3 69 2.6 WSW 7 17 4 9 1032.7 1032.7 0.0
28/02:30pm 13.0 10.7 7.5 69 2.7 W 9 15 5 8 1032.5 1032.5 0.0
28/02:00pm 13.2 10.8 7.0 66 3.0 W 9 15 5 8 1032.4 1032.4 0.0
28/01:30pm 13.2 10.8 7.2 67 2.9 W 9 17 5 9 1032.6 1032.6 0.0
28/01:00pm 13.2 11.6 8.1 71 2.5 WNW 6 13 3 7 1032.8 1032.8 0.0
28/12:30pm 13.4 11.7 8.3 71 2.5 WNW 7 13 4 7 1033.1 1033.1 0.0
28/12:00pm 13.4 12.0 8.7 73 2.3 NW 6 13 3 7 1033.3 1033.3 0.0
28/11:30am 13.2 11.9 9.3 77 2.0 WNW 6 13 3 7 1033.5 1033.5 0.0
28/11:00am 12.5 11.3 9.5 82 1.5 WNW 6 13 3 7 1033.6 1033.6 0.0
28/10:30am 12.2 10.8 9.4 83 1.4 WNW 7 11 4 6 1033.6 1033.6 0.0
28/10:00am 11.8 11.0 9.5 86 1.2 WNW 4 9 2 5 1033.6 1033.6 0.0

Latest Capital City Observations: Canberra | Sydney | Melbourne | Brisbane | Adelaide | Perth | Hobart | Darwin

Other Formats:

Comma delimited format used in spreadsheet applications
http://www.bom.gov.au/fwo/IDV60901/IDV60901.94892.axf

JavaScript Object Notation format (JSON) in row-major order
http://www.bom.gov.au/fwo/IDV60901/IDV60901.94892.json